Time;durP1;ratioP1;P1;durP2;ratioP2;P2;SDS_P1;SDS_P2;PMS_P1;PMS_P2;Temp;Humidity;BMP_temperature;BMP_pressure;BME280_temperature;BME280_humidity;BME280_pressure;Samples;Min_cycle;Max_cycle;Signal;HPM_P1;HPM_P2
2022/07/16 00:02:03;;;;;;;4.50;3.20;;;;;;;12.81;100.00;100170.64;1742662;82;21093;-68
2022/07/16 00:04:30;;;;;;;7.20;3.30;;;;;;;12.77;100.00;100167.30;1742774;82;21045;-67
2022/07/16 00:06:56;;;;;;;6.70;3.45;;;;;;;12.78;100.00;100165.03;1742609;82;20974;-68
2022/07/16 00:09:23;;;;;;;7.20;3.50;;;;;;;12.77;100.00;100169.94;1742966;82;21100;-68
2022/07/16 00:11:51;;;;;;;6.20;3.25;;;;;;;12.76;100.00;100173.48;1742939;82;21076;-68
2022/07/16 00:14:20;;;;;;;11.08;3.42;;;;;;;12.75;100.00;100166.50;1742758;82;21021;-69
2022/07/16 00:16:48;;;;;;;8.00;3.50;;;;;;;12.70;100.00;100173.79;1743050;82;21036;-69
2022/07/16 00:19:19;;;;;;;10.05;2.87;;;;;;;12.67;100.00;100176.55;1742658;82;21323;-69
2022/07/16 00:21:49;;;;;;;5.75;3.30;;;;;;;12.65;100.00;100173.11;1742645;82;21061;-69
2022/07/16 00:24:17;;;;;;;7.15;3.58;;;;;;;12.64;100.00;100175.38;1742860;82;22214;-70
2022/07/16 00:26:44;;;;;;;11.05;3.60;;;;;;;12.62;100.00;100178.55;1742617;82;21076;-69
2022/07/16 00:29:11;;;;;;;5.85;3.15;;;;;;;12.60;100.00;100176.44;1742807;82;21044;-68
2022/07/16 00:31:39;;;;;;;9.40;3.60;;;;;;;12.58;100.00;100183.13;1742596;82;21045;-67
2022/07/16 00:34:07;;;;;;;4.45;3.58;;;;;;;12.57;100.00;100183.19;1742625;82;21089;-68
2022/07/16 00:36:35;;;;;;;8.80;3.50;;;;;;;12.56;100.00;100182.77;1742761;82;21814;-69
2022/07/16 00:39:04;;;;;;;6.12;3.00;;;;;;;12.55;100.00;100175.78;1742178;80;21573;-67
2022/07/16 00:41:30;;;;;;;7.28;3.12;;;;;;;12.51;100.00;100176.37;1742775;82;21131;-68
2022/07/16 00:44:04;;;;;;;6.90;3.22;;;;;;;12.39;100.00;100176.45;1742604;82;21080;-69
2022/07/16 00:46:31;;;;;;;4.95;3.30;;;;;;;12.38;100.00;100176.07;1742561;82;21071;-68
2022/07/16 00:48:58;;;;;;;5.55;3.12;;;;;;;12.34;100.00;100178.45;1742511;82;21206;-68
2022/07/16 00:53:58;;;;;;;4.45;3.27;;;;;;;12.27;100.00;100178.31;1796247;79;22213;-68
2022/07/16 00:56:25;;;;;;;10.80;3.98;;;;;;;12.28;100.00;100176.06;1756594;80;21068;-66
2022/07/16 00:58:53;;;;;;;10.95;3.50;;;;;;;12.29;100.00;100177.79;1756232;81;21241;-67
2022/07/16 01:01:20;;;;;;;6.50;3.15;;;;;;;12.24;100.00;100178.46;1756352;81;21102;-68
2022/07/16 01:03:46;;;;;;;6.15;3.62;;;;;;;12.14;100.00;100172.69;1756357;81;20950;-68
2022/07/16 01:06:14;;;;;;;5.83;3.12;;;;;;;12.17;100.00;100180.97;1749252;81;20981;-69
2022/07/16 01:08:44;;;;;;;11.93;3.60;;;;;;;12.16;100.00;100184.52;1747959;82;21078;-68
2022/07/16 01:11:12;;;;;;;10.25;3.62;;;;;;;12.13;100.00;100172.78;1752838;81;21072;-67
2022/07/16 01:13:41;;;;;;;8.48;3.08;;;;;;;12.11;100.00;100182.54;1756531;81;20970;-68
2022/07/16 01:16:08;;;;;;;9.88;3.60;;;;;;;12.08;100.00;100180.05;1756572;81;21605;-68
2022/07/16 01:18:37;;;;;;;5.78;3.05;;;;;;;12.06;100.00;100175.28;1756285;81;21088;-67
2022/07/16 01:21:04;;;;;;;5.65;3.45;;;;;;;12.03;100.00;100169.68;1756510;81;21057;-68
2022/07/16 01:23:31;;;;;;;10.30;3.70;;;;;;;12.03;100.00;100168.80;1756279;81;21116;-69
2022/07/16 01:25:57;;;;;;;7.67;3.70;;;;;;;12.02;100.00;100171.05;1756127;81;21026;-68
2022/07/16 01:28:24;;;;;;;5.70;3.37;;;;;;;12.00;100.00;100171.58;1756208;81;21045;-67
2022/07/16 01:30:51;;;;;;;8.98;3.50;;;;;;;11.96;100.00;100167.76;1756235;81;21022;-67
2022/07/16 01:33:30;;;;;;;7.10;3.35;;;;;;;11.94;100.00;100174.02;1756140;81;21021;-69
2022/07/16 01:36:00;;;;;;;5.10;3.35;;;;;;;11.89;100.00;100174.66;1756403;81;21094;-68
2022/07/16 01:38:29;;;;;;;6.17;3.40;;;;;;;11.85;100.00;100180.51;1720730;83;21116;-68
2022/07/16 01:40:55;;;;;;;7.58;3.35;;;;;;;11.81;100.00;100180.23;1697274;84;21061;-68
2022/07/16 01:43:25;;;;;;;6.42;3.65;;;;;;;11.79;100.00;100183.39;1696812;84;21093;-68
2022/07/16 01:45:52;;;;;;;5.75;3.70;;;;;;;11.78;100.00;100189.59;1696908;84;21057;-68
2022/07/16 01:48:18;;;;;;;5.83;3.75;;;;;;;11.76;100.00;100184.84;1696946;84;21250;-68
2022/07/16 01:50:45;;;;;;;6.12;3.45;;;;;;;11.77;100.00;100185.23;1696667;84;21046;-68
2022/07/16 01:53:13;;;;;;;6.50;3.27;;;;;;;11.77;100.00;100182.59;1718046;83;21058;-69
2022/07/16 01:55:40;;;;;;;7.35;3.08;;;;;;;11.80;100.00;100181.16;1719646;83;21659;-69
2022/07/16 01:58:08;;;;;;;10.93;3.62;;;;;;;11.79;100.00;100182.06;1707205;83;21580;-68
2022/07/16 02:00:36;;;;;;;4.85;3.40;;;;;;;11.76;100.00;100188.80;1716297;83;21793;-68
2022/07/16 02:03:04;;;;;;;10.63;3.45;;;;;;;11.73;100.00;100186.27;1720999;83;21055;-68
2022/07/16 02:05:30;;;;;;;6.00;2.83;;;;;;;11.70;100.00;100189.04;1717772;83;21517;-69
2022/07/16 02:07:57;;;;;;;11.48;3.10;;;;;;;11.67;100.00;100191.81;1662029;86;21124;-68
2022/07/16 02:10:24;;;;;;;11.70;3.75;;;;;;;11.64;100.00;100190.16;1661868;86;21131;-69
2022/07/16 02:12:50;;;;;;;6.45;3.42;;;;;;;11.64;100.00;100187.95;1661797;86;21256;-68
2022/07/16 02:15:17;;;;;;;7.90;2.90;;;;;;;11.62;100.00;100190.68;1661849;86;21229;-68
2022/07/16 02:17:44;;;;;;;13.88;3.70;;;;;;;11.59;100.00;100187.30;1661588;86;21595;-69
2022/07/16 02:20:12;;;;;;;7.58;3.30;;;;;;;11.58;100.00;100190.86;1661566;86;21064;-69
2022/07/16 02:22:40;;;;;;;9.90;3.22;;;;;;;11.57;100.00;100194.41;1661420;86;21083;-68
2022/07/16 02:25:08;;;;;;;8.18;3.50;;;;;;;11.53;100.00;100195.00;1661611;86;21688;-68
2022/07/16 02:27:36;;;;;;;9.48;3.70;;;;;;;11.52;100.00;100194.13;1661330;86;21077;-66
2022/07/16 02:30:04;;;;;;;9.93;3.90;;;;;;;11.50;100.00;100195.99;1661609;86;21042;-67
2022/07/16 02:32:31;;;;;;;5.20;3.40;;;;;;;11.50;100.00;100189.40;1671246;84;21033;-68
2022/07/16 02:34:57;;;;;;;8.05;3.47;;;;;;;11.52;100.00;100198.08;1688288;84;21099;-70
2022/07/16 02:37:24;;;;;;;5.10;3.40;;;;;;;11.52;100.00;100194.13;1676792;84;21331;-69
2022/07/16 02:39:50;;;;;;;6.28;3.55;;;;;;;11.59;100.00;100200.48;1675477;84;21084;-68
2022/07/16 02:42:17;;;;;;;10.65;3.67;;;;;;;11.65;100.00;100204.20;1677640;84;21090;-67
2022/07/16 02:44:44;;;;;;;5.17;3.42;;;;;;;11.68;100.00;100203.60;1711857;83;21220;-69
2022/07/16 02:47:10;;;;;;;5.17;3.77;;;;;;;11.72;100.00;100210.48;1678138;84;21634;-69
2022/07/16 02:49:37;;;;;;;8.18;3.35;;;;;;;11.79;100.00;100205.81;1677022;84;21230;-67
2022/07/16 02:52:04;;;;;;;6.65;3.42;;;;;;;11.86;100.00;100210.38;1680808;84;21522;-69
2022/07/16 02:54:30;;;;;;;6.12;2.90;;;;;;;11.91;100.00;100200.05;1671975;83;21085;-67
2022/07/16 02:56:57;;;;;;;8.63;3.70;;;;;;;11.98;100.00;100205.09;1678944;85;21347;-68
2022/07/16 02:59:24;;;;;;;10.43;3.70;;;;;;;12.07;100.00;100205.55;1686374;85;21121;-68
2022/07/16 03:01:51;;;;;;;5.97;3.30;;;;;;;12.15;100.00;100209.22;1686525;85;21706;-67
2022/07/16 03:04:17;;;;;;;9.88;3.67;;;;;;;12.24;100.00;100207.94;1686185;85;21061;-69
2022/07/16 03:06:44;;;;;;;6.03;3.25;;;;;;;12.34;100.00;100199.57;1686523;85;21105;-67
2022/07/16 03:09:10;;;;;;;6.30;3.10;;;;;;;12.47;100.00;100202.98;1663128;85;21628;-68
2022/07/16 03:11:37;;;;;;;11.65;3.70;;;;;;;12.55;100.00;100204.38;1659041;85;21577;-68
2022/07/16 03:14:03;;;;;;;8.30;3.90;;;;;;;12.67;100.00;100204.29;1656402;85;21648;-69
2022/07/16 03:16:30;;;;;;;11.65;3.45;;;;;;;12.77;100.00;100201.65;1656692;85;21603;-69
2022/07/16 03:18:57;;;;;;;7.95;3.30;;;;;;;12.88;100.00;100210.39;1658588;85;21053;-70
2022/07/16 03:21:24;;;;;;;9.70;3.58;;;;;;;12.98;100.00;100212.18;1679286;84;21534;-68
2022/07/16 03:23:50;;;;;;;9.93;3.90;;;;;;;13.10;100.00;100208.96;1679001;84;21545;-69
2022/07/16 03:26:17;;;;;;;10.40;3.20;;;;;;;13.22;100.00;100208.38;1678755;84;21889;-68
2022/07/16 03:28:45;;;;;;;6.47;3.50;;;;;;;13.33;100.00;100206.60;1681245;84;21057;-68
2022/07/16 03:31:12;;;;;;;9.55;3.62;;;;;;;13.49;100.00;100215.99;1678125;84;21080;-70
2022/07/16 03:33:38;;;;;;;10.58;3.35;;;;;;;13.63;100.00;100202.95;1655850;85;21659;-68
2022/07/16 03:36:06;;;;;;;8.73;3.65;;;;;;;13.76;100.00;100205.02;1679829;84;21649;-69
2022/07/16 03:41:18;;;;;;;7.92;3.47;;;;;;;14.09;100.00;100205.12;1685384;84;21061;-68
2022/07/16 03:43:45;;;;;;;6.75;3.02;;;;;;;14.31;100.00;100212.84;1694512;84;21092;-68
2022/07/16 03:46:13;;;;;;;5.33;2.50;;;;;;;14.52;100.00;100210.03;1694263;84;21110;-68
2022/07/16 03:48:43;;;;;;;10.85;3.30;;;;;;;14.72;100.00;100211.64;1694240;84;21676;-68
2022/07/16 03:51:11;;;;;;;4.65;2.90;;;;;;;14.90;100.00;100204.88;1694380;84;21633;-68
2022/07/16 03:53:38;;;;;;;4.78;3.15;;;;;;;15.14;100.00;100208.94;1696565;83;21108;-67
2022/07/16 03:56:06;;;;;;;4.70;2.87;;;;;;;15.34;100.00;100198.56;1709499;83;21061;-68
2022/07/16 03:58:33;;;;;;;5.25;2.75;;;;;;;15.57;100.00;100208.74;1699784;84;21113;-69
2022/07/16 04:01:00;;;;;;;5.72;2.98;;;;;;;15.85;100.00;100208.52;1709289;83;21064;-67
2022/07/16 04:03:26;;;;;;;8.60;2.92;;;;;;;16.11;100.00;100215.84;1699592;84;21722;-67
2022/07/16 04:05:53;;;;;;;6.55;2.83;;;;;;;16.31;100.00;100219.11;1709383;83;22082;-68
2022/07/16 04:08:20;;;;;;;3.30;2.30;;;;;;;16.51;100.00;100221.44;1699735;84;21125;-67
2022/07/16 04:10:47;;;;;;;3.55;2.50;;;;;;;16.76;100.00;100226.61;1709379;83;21069;-68
2022/07/16 04:13:14;;;;;;;3.85;2.47;;;;;;;17.01;100.00;100226.47;1691598;84;21140;-67
2022/07/16 04:15:40;;;;;;;7.15;2.45;;;;;;;17.28;100.00;100222.07;1677157;85;21247;-68
2022/07/16 04:18:06;;;;;;;4.67;2.62;;;;;;;17.57;100.00;100219.33;1680906;85;21044;-68
2022/07/16 04:20:34;;;;;;;6.85;2.90;;;;;;;17.82;100.00;100219.47;1665027;85;21029;-70
2022/07/16 04:23:01;;;;;;;3.60;2.33;;;;;;;18.02;100.00;100222.64;1669849;85;21099;-68
2022/07/16 04:25:28;;;;;;;6.37;2.40;;;;;;;18.28;100.00;100224.03;1673944;85;21300;-69
2022/07/16 04:27:55;;;;;;;3.90;2.30;;;;;;;18.53;100.00;100221.40;1653245;86;21261;-70
2022/07/16 04:30:21;;;;;;;3.27;2.42;;;;;;;18.79;100.00;100221.44;1665036;85;21044;-68
2022/07/16 04:32:48;;;;;;;6.67;3.95;;;;;;;19.09;100.00;100222.42;1680880;85;21159;-70
2022/07/16 04:35:14;;;;;;;6.03;2.55;;;;;;;19.38;100.00;100221.67;1676498;85;21029;-68
2022/07/16 04:37:41;;;;;;;4.87;2.20;;;;;;;19.70;98.30;100217.17;1655232;85;21088;-69
2022/07/16 04:40:09;;;;;;;4.85;2.33;;;;;;;19.97;94.94;100226.30;1688990;84;22075;-69
2022/07/16 04:42:38;;;;;;;5.95;2.52;;;;;;;20.18;94.08;100226.51;1661057;85;21109;-68
2022/07/16 04:45:05;;;;;;;7.78;2.80;;;;;;;20.37;92.38;100222.44;1680817;85;21077;-68
2022/07/16 04:47:32;;;;;;;5.10;2.30;;;;;;;20.59;90.36;100221.19;1680230;85;21069;-68
2022/07/16 04:49:59;;;;;;;3.83;2.10;;;;;;;20.84;88.39;100226.78;1694592;84;21064;-70
2022/07/16 04:52:27;;;;;;;5.97;2.12;;;;;;;20.99;86.58;100227.42;1679034;84;21804;-69
2022/07/16 04:54:53;;;;;;;4.15;2.40;;;;;;;21.19;85.15;100227.65;1669324;84;21118;-67
2022/07/16 04:57:20;;;;;;;6.20;2.45;;;;;;;21.41;84.29;100222.31;1705457;82;21208;-70
2022/07/16 04:59:47;;;;;;;6.83;2.37;;;;;;;21.58;83.43;100218.28;1716502;82;21037;-68
2022/07/16 05:04:58;;;;;;;4.35;2.22;;;;;;;22.00;81.13;100219.23;1712596;82;21159;-70
2022/07/16 05:07:25;;;;;;;6.70;2.40;;;;;;;22.22;79.88;100215.26;1726246;82;21006;-69
2022/07/16 05:09:53;;;;;;;3.67;1.90;;;;;;;22.46;78.71;100212.34;1726380;82;21021;-69
2022/07/16 05:12:19;;;;;;;4.50;1.90;;;;;;;22.72;77.76;100219.48;1707973;82;21098;-68
2022/07/16 05:14:46;;;;;;;4.15;2.17;;;;;;;22.98;75.73;100215.85;1705178;82;21097;-68
2022/07/16 05:17:14;;;;;;;5.45;2.10;;;;;;;23.22;74.56;100215.08;1704809;84;21842;-69
2022/07/16 05:19:41;;;;;;;3.25;1.75;;;;;;;23.41;71.08;100216.12;1723287;82;21534;-68
2022/07/16 05:22:08;;;;;;;5.35;1.90;;;;;;;23.53;68.36;100221.73;1733890;82;21038;-69
2022/07/16 05:24:36;;;;;;;3.25;1.87;;;;;;;23.71;67.29;100219.72;1733986;82;21130;-71
2022/07/16 05:27:03;;;;;;;3.22;2.12;;;;;;;23.84;65.78;100220.34;1717246;82;21018;-68
2022/07/16 05:29:30;;;;;;;4.10;1.95;;;;;;;24.03;65.27;100217.65;1718203;82;21281;-70
2022/07/16 05:31:56;;;;;;;5.37;2.20;;;;;;;24.23;63.61;100218.50;1719611;82;21070;-69
2022/07/16 05:34:22;;;;;;;3.50;2.10;;;;;;;24.41;62.20;100221.33;1733642;82;21094;-69
2022/07/16 05:36:49;;;;;;;3.33;1.82;;;;;;;24.47;61.65;100223.45;1733940;82;21025;-69
2022/07/16 05:39:15;;;;;;;3.92;2.20;;;;;;;24.56;60.04;100218.20;1733775;82;21218;-71
2022/07/16 05:41:42;;;;;;;3.75;1.85;;;;;;;24.65;57.33;100220.03;1733264;82;21202;-70
2022/07/16 05:44:09;;;;;;;4.42;2.30;;;;;;;24.73;58.49;100225.52;1727813;82;21605;-70
2022/07/16 05:46:35;;;;;;;3.52;1.80;;;;;;;24.95;57.93;100224.83;1705101;84;21085;-72
2022/07/16 05:49:02;;;;;;;4.03;2.12;;;;;;;25.16;56.67;100217.36;1704814;84;21063;-71
2022/07/16 05:51:29;;;;;;;3.47;2.10;;;;;;;25.23;55.72;100222.53;1704948;82;21069;-71
2022/07/16 05:53:55;;;;;;;16.45;2.25;;;;;;;25.30;56.57;100214.70;1718399;82;21223;-71
2022/07/16 05:56:23;;;;;;;11.20;1.67;;;;;;;25.41;55.63;100224.44;1734380;82;21051;-71
2022/07/16 05:58:50;;;;;;;2.95;1.40;;;;;;;25.54;55.08;100220.89;1734214;82;21561;-72
2022/07/16 06:01:16;;;;;;;3.85;1.80;;;;;;;25.75;53.32;100213.87;1710706;82;21027;-72
2022/07/16 06:03:43;;;;;;;4.10;1.90;;;;;;;25.93;52.48;100207.17;1723081;82;21527;-73
2022/07/16 06:06:09;;;;;;;3.80;2.00;;;;;;;25.92;51.29;100214.90;1722987;82;21225;-71
2022/07/16 06:08:36;;;;;;;4.35;1.90;;;;;;;26.02;52.26;100214.34;1705148;84;21199;-71
2022/07/16 06:11:04;;;;;;;2.30;1.57;;;;;;;26.24;51.03;100213.50;1704997;84;21109;-69
2022/07/16 06:13:30;;;;;;;8.15;1.90;;;;;;;26.36;49.75;100213.59;1705212;84;21156;-72
2022/07/16 06:15:57;;;;;;;14.60;2.58;;;;;;;26.53;46.30;100210.53;1705132;84;21098;-72
2022/07/16 06:18:24;;;;;;;6.30;1.70;;;;;;;26.63;46.66;100218.55;1707411;82;21112;-72
2022/07/16 06:20:50;;;;;;;2.60;1.55;;;;;;;26.74;45.29;100210.19;1704754;84;20999;-72
2022/07/16 06:23:19;;;;;;;3.00;1.40;;;;;;;26.86;44.07;100208.89;1705222;84;21007;-73
2022/07/16 06:25:45;;;;;;;3.80;1.40;;;;;;;27.02;43.29;100215.41;1733118;82;21038;-69
2022/07/16 06:28:12;;;;;;;5.87;1.50;;;;;;;27.25;43.05;100215.20;1734313;82;21033;-70
2022/07/16 06:30:39;;;;;;;2.83;1.30;;;;;;;27.38;41.49;100207.48;1726418;82;21129;-71
2022/07/16 06:33:06;;;;;;;2.77;1.37;;;;;;;27.58;42.44;100215.30;1728163;82;21518;-70
2022/07/16 06:35:33;;;;;;;3.70;1.62;;;;;;;27.79;40.69;100208.94;1707392;82;21519;-70
2022/07/16 06:37:59;;;;;;;3.10;1.30;;;;;;;28.00;40.18;100208.48;1710329;82;21608;-70
2022/07/16 06:40:26;;;;;;;5.00;1.40;;;;;;;28.12;40.20;100204.94;1712685;82;21045;-70
2022/07/16 06:42:52;;;;;;;3.45;1.30;;;;;;;28.29;37.78;100207.13;1725891;82;21751;-71
2022/07/16 06:45:21;;;;;;;6.05;1.75;;;;;;;28.54;39.46;100211.20;1714513;82;21076;-69
2022/07/16 06:47:48;;;;;;;3.22;1.12;;;;;;;28.77;38.78;100209.98;1725323;82;21057;-70
2022/07/16 06:50:15;;;;;;;2.12;1.35;;;;;;;28.92;35.87;100210.96;1704049;82;21079;-70
2022/07/16 06:52:42;;;;;;;2.12;1.32;;;;;;;28.82;36.64;100208.94;1713702;82;21093;-71
2022/07/16 06:55:09;;;;;;;3.30;1.30;;;;;;;28.86;36.62;100212.48;1725596;82;21870;-69
2022/07/16 06:57:35;;;;;;;2.77;1.10;;;;;;;29.04;35.74;100214.98;1725456;82;21549;-70
2022/07/16 07:00:03;;;;;;;2.33;1.40;;;;;;;28.96;34.93;100209.57;1728555;82;21540;-71
2022/07/16 07:02:30;;;;;;;3.12;1.50;;;;;;;28.83;33.95;100212.01;1746713;82;21518;-70
2022/07/16 07:04:57;;;;;;;4.05;1.52;;;;;;;28.77;36.58;100203.20;1718279;83;21653;-71
2022/07/16 07:07:23;;;;;;;2.50;0.90;;;;;;;28.82;35.80;100211.14;1704638;82;21266;-70
2022/07/16 07:09:50;;;;;;;4.15;1.52;;;;;;;28.90;31.62;100202.67;1747962;82;21033;-70
2022/07/16 07:12:18;;;;;;;5.20;1.50;;;;;;;28.70;34.04;100204.91;1697306;83;21085;-70
2022/07/16 07:14:46;;;;;;;5.90;1.55;;;;;;;28.61;33.92;100206.27;1718189;83;21084;-71
2022/07/16 07:17:12;;;;;;;6.08;1.50;;;;;;;28.59;34.97;100199.34;1732986;82;21080;-71
2022/07/16 07:19:39;;;;;;;4.90;1.50;;;;;;;28.72;35.78;100200.17;1732229;82;21117;-69
2022/07/16 07:22:06;;;;;;;1.85;1.00;;;;;;;28.96;34.04;100201.44;1735937;82;21063;-71
2022/07/16 07:24:32;;;;;;;3.72;1.35;;;;;;;29.27;33.91;100199.34;1724819;82;21687;-70
2022/07/16 07:26:59;;;;;;;3.65;1.37;;;;;;;29.61;30.32;100198.11;1724864;82;21101;-69
2022/07/16 07:29:26;;;;;;;2.42;0.80;;;;;;;29.85;31.05;100199.87;1732711;82;21645;-70
2022/07/16 07:31:52;;;;;;;2.35;1.00;;;;;;;30.04;29.62;100190.39;1722359;82;21131;-71
2022/07/16 07:34:19;;;;;;;3.87;1.32;;;;;;;29.73;29.18;100195.38;1731037;82;21025;-71
2022/07/16 07:36:45;;;;;;;6.10;1.32;;;;;;;29.58;31.38;100189.83;1747879;82;21581;-71
2022/07/16 07:39:12;;;;;;;2.62;1.30;;;;;;;29.67;30.27;100189.27;1730105;81;21549;-71
2022/07/16 07:41:38;;;;;;;3.50;0.90;;;;;;;29.79;30.53;100186.49;1747521;82;21569;-72
2022/07/16 07:44:05;;;;;;;2.50;1.17;;;;;;;29.98;30.63;100189.75;1739964;82;21083;-69
2022/07/16 07:46:31;;;;;;;4.20;1.30;;;;;;;30.28;28.30;100186.67;1748068;82;21009;-71
2022/07/16 07:48:59;;;;;;;1.52;1.02;;;;;;;30.51;29.93;100181.18;1739646;81;21637;-70
2022/07/16 07:51:26;;;;;;;7.55;1.05;;;;;;;30.45;30.36;100177.84;1747009;82;21085;-70
2022/07/16 07:53:52;;;;;;;1.65;1.10;;;;;;;30.63;29.83;100185.64;1727229;82;21061;-70
2022/07/16 07:56:20;;;;;;;3.08;1.00;;;;;;;30.47;28.34;100188.02;1722229;81;21291;-71
2022/07/16 07:58:47;;;;;;;3.77;1.10;;;;;;;30.47;28.34;100188.02;1727413;82;21021;-70
2022/07/16 08:01:14;;;;;;;3.00;1.10;;;;;;;30.36;28.71;100183.02;1725105;82;21084;-70
2022/07/16 08:03:42;;;;;;;2.98;1.00;;;;;;;30.27;29.30;100174.94;1735796;82;21077;-72
2022/07/16 08:06:08;;;;;;;4.90;1.07;;;;;;;30.25;28.35;100178.34;1724723;82;21347;-72
2022/07/16 08:08:35;;;;;;;12.90;1.20;;;;;;;30.09;29.23;100178.46;1718411;82;21096;-71
2022/07/16 08:11:01;;;;;;;4.62;1.40;;;;;;;30.18;28.78;100179.24;1722406;82;21049;-69
2022/07/16 08:13:33;;;;;;;1.82;0.90;;;;;;;30.18;28.78;100179.24;1722351;82;21048;-71
2022/07/16 08:15:56;;;;;;;2.20;1.10;;;;;;;30.87;26.37;100179.11;1728724;82;21025;-70
2022/07/16 08:18:23;;;;;;;4.50;1.02;;;;;;;30.90;26.59;100176.88;1735785;82;21557;-70
2022/07/16 08:20:50;;;;;;;2.08;0.82;;;;;;;30.90;26.59;100176.88;1718311;82;21211;-69
2022/07/16 08:25:44;;;;;;;3.47;1.02;;;;;;;30.98;26.22;100175.91;1718495;82;21066;-71
2022/07/16 08:25:44;;;;;;;1.87;1.20;;;;;;;31.08;27.09;100175.13;1714323;82;21078;-71
2022/07/16 08:28:13;;;;;;;1.67;0.93;;;;;;;31.08;27.23;100176.48;1729521;82;21675;-71
2022/07/16 08:30:40;;;;;;;1.47;0.95;;;;;;;31.17;26.37;100177.73;1731778;82;21053;-72
2022/07/16 08:33:06;;;;;;;3.47;0.93;;;;;;;31.09;26.17;100177.33;1717531;82;21025;-70
2022/07/16 08:35:33;;;;;;;1.37;0.68;;;;;;;31.01;26.54;100174.17;1718197;82;21106;-71
2022/07/16 08:38:00;;;;;;;1.82;0.95;;;;;;;31.10;25.43;100168.95;1718132;82;21544;-71
2022/07/16 08:40:27;;;;;;;3.17;1.10;;;;;;;31.16;26.45;100172.81;1718371;82;21531;-70
2022/07/16 08:42:54;;;;;;;2.10;0.95;;;;;;;31.18;25.90;100171.27;1733882;82;21538;-69
2022/07/16 08:45:22;;;;;;;1.90;0.90;;;;;;;31.09;25.21;100174.08;1736582;82;21033;-70
2022/07/16 08:47:52;;;;;;;3.40;1.20;;;;;;;31.17;26.44;100169.05;1734965;81;21040;-71
2022/07/16 08:50:19;;;;;;;3.77;0.90;;;;;;;31.53;25.22;100163.64;1722562;82;21572;-71
2022/07/16 08:52:52;;;;;;;2.10;1.00;;;;;;;31.35;26.10;100159.11;1729170;82;21045;-72
2022/07/16 08:55:23;;;;;;;6.53;0.82;;;;;;;31.29;25.50;100158.51;1743369;82;21643;-70
2022/07/16 08:57:50;;;;;;;4.00;1.07;;;;;;;31.21;26.20;100155.91;1709540;81;21096;-71
2022/07/16 09:00:17;;;;;;;1.47;0.90;;;;;;;31.22;27.64;100157.59;1725336;81;21077;-72
2022/07/16 09:02:45;;;;;;;6.15;0.95;;;;;;;31.11;26.42;100154.34;1731081;81;21602;-70
2022/07/16 09:05:11;;;;;;;1.82;1.00;;;;;;;30.81;25.92;100152.66;1664112;84;21123;-72
2022/07/16 09:07:38;;;;;;;5.90;1.17;;;;;;;30.31;27.69;100149.62;1714804;83;21111;-71
2022/07/16 09:10:07;;;;;;;2.65;0.93;;;;;;;29.88;28.05;100156.91;1691025;83;21239;-70
2022/07/16 09:12:39;;;;;;;1.30;1.00;;;;;;;29.74;29.10;100154.98;1690758;84;21099;-70
2022/07/16 09:15:37;;;;;;;1.77;0.93;;;;;;;29.68;28.58;100147.59;1703873;83;21586;-70
2022/07/16 09:18:24;;;;;;;5.30;1.32;;;;;;;29.57;28.89;100152.87;1677428;84;21080;-69
2022/07/16 09:20:57;;;;;;;3.40;1.02;;;;;;;29.41;29.28;100154.34;1686591;84;21176;-69
2022/07/16 09:23:37;;;;;;;2.20;1.07;;;;;;;29.10;29.43;100152.97;1719910;83;21809;-70
2022/07/16 09:26:08;;;;;;;;;;;;;;;28.68;29.93;100152.76;1716820;83;21552;-70
2022/07/16 09:28:42;;;;;;;;;;;;;;;28.40;29.75;100154.48;1693900;84;20214;-69
2022/07/16 09:31:13;;;;;;;4.30;1.27;;;;;;;28.06;30.05;100154.17;1709281;83;20198;-71
2022/07/16 09:33:39;;;;;;;4.62;1.22;;;;;;;27.87;30.95;100153.16;1643335;84;21076;-70
2022/07/16 09:36:10;;;;;;;2.80;1.22;;;;;;;27.69;31.18;100144.66;1675912;83;21709;-72
2022/07/16 09:38:49;;;;;;;2.45;1.00;;;;;;;27.57;31.18;100151.41;1662628;86;21147;-70
2022/07/16 09:41:17;;;;;;;2.45;1.10;;;;;;;27.40;31.78;100137.86;1662825;86;21119;-70
2022/07/16 09:43:44;;;;;;;2.15;1.37;;;;;;;27.37;31.86;100142.73;1662598;86;21095;-70
2022/07/16 09:46:19;;;;;;;2.87;1.40;;;;;;;27.25;31.07;100143.55;1663014;86;22299;-70
2022/07/16 09:48:47;;;;;;;3.35;1.50;;;;;;;27.10;31.78;100137.05;1662620;86;21798;-70
2022/07/16 09:51:26;;;;;;;5.53;1.82;;;;;;;26.95;32.24;100152.53;1662444;86;21545;-71
2022/07/16 09:53:55;;;;;;;9.28;1.75;;;;;;;27.05;32.56;100140.23;1673291;85;21035;-71
2022/07/16 09:56:27;;;;;;;2.55;1.20;;;;;;;27.31;32.93;100142.91;1701444;84;21108;-71
2022/07/16 09:58:56;;;;;;;2.55;1.30;;;;;;;27.66;32.85;100143.64;1719960;83;21056;-71
2022/07/16 10:01:23;;;;;;;3.07;1.57;;;;;;;28.10;32.58;100139.28;1691152;84;21986;-71
2022/07/16 10:03:51;;;;;;;3.80;1.45;;;;;;;28.45;30.97;100144.81;1691023;84;21580;-69
2022/07/16 10:06:18;;;;;;;3.87;1.37;;;;;;;28.52;30.83;100141.45;1690951;84;21047;-70
2022/07/16 10:08:46;;;;;;;2.77;1.20;;;;;;;28.43;31.42;100141.94;1691142;84;21127;-70
2022/07/16 10:11:12;;;;;;;1.82;1.10;;;;;;;28.19;31.14;100136.91;1691171;84;21580;-72
2022/07/16 10:13:43;;;;;;;3.55;1.98;;;;;;;27.92;31.42;100142.16;1691164;84;21135;-72
2022/07/16 10:16:10;;;;;;;3.02;1.40;;;;;;;27.67;31.47;100141.27;1691174;84;21017;-71
2022/07/16 10:18:45;;;;;;;4.08;1.62;;;;;;;27.59;31.19;100131.80;1690885;84;21120;-71
2022/07/16 10:21:18;;;;;;;2.77;1.27;;;;;;;27.54;32.23;100140.42;1689353;84;21521;-70
2022/07/16 10:23:49;;;;;;;6.45;1.60;;;;;;;27.48;32.46;100124.84;1690034;84;21100;-71
2022/07/16 10:26:21;;;;;;;5.12;1.50;;;;;;;27.40;32.89;100130.23;1688311;84;21279;-70
2022/07/16 10:28:56;;;;;;;3.00;1.72;;;;;;;27.26;33.64;100126.31;1691296;84;21056;-70
2022/07/16 10:34:35;;;;;;;2.22;1.30;;;;;;;27.16;33.60;100131.83;1691407;84;21092;-70
2022/07/16 10:37:03;;;;;;;4.62;1.55;;;;;;;27.57;33.28;100120.30;1691109;84;21072;-71
2022/07/16 10:39:30;;;;;;;20.23;12.50;;;;;;;27.98;33.05;100121.20;1691258;84;21136;-70
2022/07/16 10:42:00;;;;;;;15.70;8.38;;;;;;;28.43;31.87;100113.50;1691021;84;21542;-71
2022/07/16 10:44:46;;;;;;;9.10;2.83;;;;;;;28.78;32.31;100111.39;1720211;83;21143;-71
2022/07/16 10:47:13;;;;;;;13.15;9.30;;;;;;;29.26;30.57;100110.36;1719914;83;21502;-71
2022/07/16 10:49:40;;;;;;;17.62;11.97;;;;;;;29.57;30.13;100112.17;1691072;84;21624;-71
2022/07/16 10:52:16;;;;;;;5.53;2.30;;;;;;;29.89;30.18;100104.84;1691029;84;21264;-70
2022/07/16 10:54:54;;;;;;;3.75;2.00;;;;;;;30.09;28.99;100106.01;1680972;84;21083;-71
2022/07/16 10:57:33;;;;;;;2.70;1.67;;;;;;;30.24;29.29;100107.38;1690757;84;21148;-70
2022/07/16 10:59:59;;;;;;;4.42;1.40;;;;;;;29.69;28.28;100107.20;1688659;84;21094;-72
2022/07/16 11:02:26;;;;;;;4.87;1.62;;;;;;;29.69;28.28;100107.20;1657900;86;21636;-70
2022/07/16 11:04:53;;;;;;;3.45;1.55;;;;;;;29.10;28.98;100104.16;1668767;86;21738;-71
2022/07/16 11:07:21;;;;;;;2.58;1.17;;;;;;;29.10;28.98;100104.16;1668569;86;21152;-71
2022/07/16 11:09:53;;;;;;;5.25;1.57;;;;;;;29.12;29.63;100106.19;1668850;85;21192;-71
2022/07/16 11:12:25;;;;;;;;;;;;;;;29.24;29.77;100096.61;1671173;86;21089;-71
2022/07/16 11:14:54;;;;;;;3.95;1.37;;;;;;;29.43;29.21;100096.69;1668948;86;20208;-71
2022/07/16 11:17:26;;;;;;;3.17;1.17;;;;;;;29.63;29.16;100091.59;1668740;85;21174;-70
2022/07/16 11:19:56;;;;;;;3.75;1.50;;;;;;;29.53;28.41;100093.73;1668892;86;21081;-70
2022/07/16 11:22:30;;;;;;;1.95;1.50;;;;;;;29.53;28.41;100093.73;1668614;86;21178;-71
2022/07/16 11:25:02;;;;;;;2.47;1.70;;;;;;;28.70;30.23;100099.24;1668025;86;21057;-70
2022/07/16 11:27:33;;;;;;;2.37;1.37;;;;;;;28.01;31.01;100102.41;1668653;86;21064;-72
2022/07/16 11:30:03;;;;;;;3.22;1.40;;;;;;;27.76;30.92;100105.09;1668376;86;21112;-71
2022/07/16 11:32:31;;;;;;;4.97;1.57;;;;;;;27.72;31.36;100101.05;1668562;86;21081;-71
2022/07/16 11:35:05;;;;;;;3.00;1.45;;;;;;;27.85;30.46;100098.36;1668557;85;21207;-70
2022/07/16 11:37:51;;;;;;;3.77;1.50;;;;;;;28.04;29.90;100102.06;1668520;85;21155;-71